createdAt,value
2019-03-26T00:00:08.098Z,101396.93
2019-03-26T00:02:37.609Z,101402.59
2019-03-26T00:05:07.119Z,101397.11
2019-03-26T00:07:36.602Z,101399.30
2019-03-26T00:10:06.090Z,101405.81
2019-03-26T00:12:35.531Z,101405.39
2019-03-26T00:15:06.312Z,101412.66
2019-03-26T00:17:35.721Z,101406.25
2019-03-26T00:20:06.234Z,101407.16
2019-03-26T00:22:35.639Z,101417.55
2019-03-26T00:25:06.214Z,101422.30
2019-03-26T00:27:35.623Z,101429.23
2019-03-26T00:30:05.596Z,101436.11
2019-03-26T00:32:35.010Z,101438.38
2019-03-26T00:35:04.716Z,101431.66
2019-03-26T00:37:34.135Z,101432.09
2019-03-26T00:40:04.044Z,101438.59
2019-03-26T00:42:33.454Z,101445.42
2019-03-26T00:45:02.895Z,101439.39
2019-03-26T00:47:32.304Z,101442.30
2019-03-26T00:50:01.754Z,101452.96
2019-03-26T00:52:31.165Z,101460.00
2019-03-26T00:55:00.615Z,101450.10
2019-03-26T00:57:30.034Z,101460.09
2019-03-26T00:59:59.485Z,101463.16
2019-03-26T01:02:28.897Z,101469.56
2019-03-26T01:04:58.343Z,101472.25
2019-03-26T01:07:27.751Z,101474.89
2019-03-26T01:09:57.196Z,101481.23
2019-03-26T01:12:26.608Z,101479.03
2019-03-26T01:14:56.048Z,101485.49
2019-03-26T01:17:25.459Z,101483.05
2019-03-26T01:19:54.891Z,101484.20
2019-03-26T01:22:24.308Z,101492.75
2019-03-26T01:24:53.743Z,101486.73
2019-03-26T01:27:23.179Z,101486.69
2019-03-26T01:29:52.612Z,101490.11
2019-03-26T01:32:22.029Z,101488.30
2019-03-26T01:34:51.772Z,101489.09
2019-03-26T01:37:21.182Z,101489.05
2019-03-26T01:39:50.621Z,101485.08
2019-03-26T01:42:20.524Z,101483.35
2019-03-26T01:44:49.966Z,101484.09
2019-03-26T01:47:19.377Z,101485.87
2019-03-26T01:49:48.830Z,101487.92
2019-03-26T01:52:18.234Z,101484.91
2019-03-26T01:54:47.684Z,101484.05
2019-03-26T01:57:17.641Z,101483.14
2019-03-26T01:59:47.100Z,101478.45
2019-03-26T02:02:16.523Z,101481.99
2019-03-26T02:04:58.866Z,101487.61
2019-03-26T02:07:17.651Z,101490.67
2019-03-26T02:09:47.093Z,101488.63
2019-03-26T02:12:16.502Z,101489.38
2019-03-26T02:14:45.956Z,101482.05
2019-03-26T02:17:15.373Z,101490.87
2019-03-26T02:19:44.810Z,101489.73
2019-03-26T02:22:14.223Z,101488.84
2019-03-26T02:24:43.673Z,101490.14
2019-03-26T02:27:13.077Z,101489.74
2019-03-26T02:29:42.502Z,101487.56
2019-03-26T02:32:11.912Z,101495.16
2019-03-26T02:34:41.351Z,101499.45
2019-03-26T02:37:10.796Z,101489.70
2019-03-26T02:39:40.199Z,101493.05
2019-03-26T02:42:09.631Z,101499.40
2019-03-26T02:44:39.034Z,101501.36
2019-03-26T02:47:08.466Z,101493.19
2019-03-26T02:49:37.870Z,101494.91
2019-03-26T02:52:07.313Z,101494.27
2019-03-26T02:54:36.751Z,101493.30
2019-03-26T02:57:06.196Z,101485.81
2019-03-26T02:59:35.599Z,101484.44
2019-03-26T03:02:05.051Z,101478.50
2019-03-26T03:04:34.467Z,101476.35
2019-03-26T03:07:03.919Z,101479.36
2019-03-26T03:09:33.330Z,101486.80
2019-03-26T03:12:02.767Z,101477.53
2019-03-26T03:14:32.172Z,101479.22
2019-03-26T03:17:01.604Z,101470.12
2019-03-26T03:19:31.030Z,101473.71
2019-03-26T03:22:00.457Z,101463.39
2019-03-26T03:24:29.858Z,101466.88
2019-03-26T03:26:59.301Z,101460.00
2019-03-26T03:29:28.705Z,101466.08
2019-03-26T03:31:58.141Z,101466.03
2019-03-26T03:34:27.556Z,101477.65
2019-03-26T03:36:56.984Z,101478.07
2019-03-26T03:39:26.385Z,101473.00
2019-03-26T03:41:55.820Z,101477.65
2019-03-26T03:44:25.233Z,101478.49
2019-03-26T03:46:54.676Z,101472.86
2019-03-26T03:49:24.102Z,101470.80
2019-03-26T03:51:53.588Z,101466.23
2019-03-26T03:54:23.017Z,101479.62
2019-03-26T03:56:53.305Z,101477.98
2019-03-26T03:59:22.708Z,101481.75
2019-03-26T04:01:52.146Z,101484.82
2019-03-26T04:04:21.553Z,101488.79
2019-03-26T04:06:50.989Z,101490.47
2019-03-26T04:09:20.601Z,101489.99
2019-03-26T04:11:50.028Z,101500.02
2019-03-26T04:14:19.447Z,101496.15
2019-03-26T04:16:48.904Z,101494.10
2019-03-26T04:19:18.322Z,101497.48
2019-03-26T04:21:47.759Z,101497.02
2019-03-26T04:24:17.589Z,101496.20
2019-03-26T04:26:47.031Z,101496.67
2019-03-26T04:29:16.460Z,101499.93
2019-03-26T04:31:45.896Z,101494.30
2019-03-26T04:34:15.315Z,101480.05
2019-03-26T04:36:44.753Z,101489.93
2019-03-26T04:39:14.163Z,101484.34
2019-03-26T04:41:43.624Z,101486.02
2019-03-26T04:44:13.072Z,101482.58
2019-03-26T04:46:45.256Z,101472.63
2019-03-26T04:49:15.012Z,101476.02
2019-03-26T04:51:44.427Z,101481.52
2019-03-26T04:54:13.871Z,101486.62
2019-03-26T04:56:43.320Z,101484.37
2019-03-26T04:59:12.791Z,101484.80
2019-03-26T05:01:42.209Z,101470.54
2019-03-26T05:04:11.852Z,101465.38
2019-03-26T05:06:41.248Z,101466.14
2019-03-26T05:09:10.684Z,101459.63
2019-03-26T05:11:40.180Z,101458.22
2019-03-26T05:14:09.614Z,101458.22
2019-03-26T05:16:39.027Z,101456.17
2019-03-26T05:19:08.463Z,101463.93
2019-03-26T05:21:37.876Z,101470.31
2019-03-26T05:24:07.316Z,101473.71
2019-03-26T05:26:36.727Z,101470.12
2019-03-26T05:29:06.169Z,101466.77
2019-03-26T05:31:35.585Z,101466.34
2019-03-26T05:34:05.030Z,101462.31
2019-03-26T05:36:34.450Z,101456.70
2019-03-26T05:39:05.165Z,101453.64
2019-03-26T05:41:34.724Z,101453.94
2019-03-26T05:44:04.169Z,101450.27
2019-03-26T05:46:33.584Z,101448.92
2019-03-26T05:49:03.050Z,101446.77
2019-03-26T05:51:32.532Z,101456.59
2019-03-26T05:54:01.996Z,101455.26
2019-03-26T05:56:32.370Z,101450.84
2019-03-26T05:59:02.025Z,101445.02
2019-03-26T06:01:31.440Z,101450.39
2019-03-26T06:04:00.888Z,101447.80
2019-03-26T06:06:30.300Z,101452.66
2019-03-26T06:08:59.747Z,101438.89
2019-03-26T06:11:29.170Z,101442.02
2019-03-26T06:13:58.623Z,101446.84
2019-03-26T06:16:37.928Z,101442.52
2019-03-26T06:18:59.235Z,101445.02
2019-03-26T06:21:28.674Z,101438.14
2019-03-26T06:23:58.135Z,101436.36
2019-03-26T06:26:27.543Z,101437.16
2019-03-26T06:28:56.997Z,101430.61
2019-03-26T06:31:26.407Z,101421.82
2019-03-26T06:33:55.843Z,101418.73
2019-03-26T06:36:25.763Z,101428.12
2019-03-26T06:38:55.288Z,101421.44
2019-03-26T06:41:24.704Z,101415.05
2019-03-26T06:43:54.173Z,101407.21
2019-03-26T06:46:23.583Z,101401.25
2019-03-26T06:48:53.032Z,101403.52
2019-03-26T06:51:25.190Z,101403.86
2019-03-26T06:53:55.595Z,101405.89
2019-03-26T06:56:25.037Z,101427.30
2019-03-26T06:58:54.475Z,101409.97
2019-03-26T07:01:23.972Z,101400.63
2019-03-26T07:03:53.432Z,101402.97
2019-03-26T07:06:23.153Z,101390.94
2019-03-26T07:08:52.601Z,101384.39
2019-03-26T07:11:22.334Z,101388.45
2019-03-26T07:13:51.743Z,101382.87
2019-03-26T07:16:21.190Z,101382.06
2019-03-26T07:18:50.606Z,101384.73
2019-03-26T07:21:20.051Z,101388.58
2019-03-26T07:23:49.463Z,101375.00
2019-03-26T07:26:19.656Z,101369.55
2019-03-26T07:28:49.066Z,101377.42
2019-03-26T07:31:18.511Z,101383.22
2019-03-26T07:33:47.918Z,101388.26
2019-03-26T07:36:17.733Z,101377.45
2019-03-26T07:38:47.147Z,101376.39
2019-03-26T07:41:16.614Z,101372.27
2019-03-26T07:43:46.024Z,101366.79
2019-03-26T07:46:15.479Z,101359.89
2019-03-26T07:48:44.888Z,101350.50
2019-03-26T07:51:15.274Z,101344.58
2019-03-26T07:53:44.684Z,101340.78
2019-03-26T07:56:14.124Z,101345.72
2019-03-26T07:58:43.534Z,101342.52
2019-03-26T08:01:12.978Z,101336.38
2019-03-26T08:03:42.390Z,101341.63
2019-03-26T08:06:11.823Z,101340.88
2019-03-26T08:08:41.237Z,101330.95
2019-03-26T08:11:10.677Z,101319.69
2019-03-26T08:13:41.089Z,101317.92
2019-03-26T08:16:10.633Z,101313.49
2019-03-26T08:18:40.036Z,101324.02
2019-03-26T08:21:09.477Z,101327.16
2019-03-26T08:23:38.896Z,101322.56
2019-03-26T08:26:08.343Z,101328.30
2019-03-26T08:28:37.753Z,101337.78
2019-03-26T08:31:07.206Z,101326.30
2019-03-26T08:33:36.628Z,101340.34
2019-03-26T08:36:06.071Z,101331.71
2019-03-26T08:38:35.484Z,101333.77
2019-03-26T08:41:05.105Z,101330.48
2019-03-26T08:43:34.520Z,101328.73
2019-03-26T08:46:03.976Z,101337.56
2019-03-26T08:48:33.387Z,101319.91
2019-03-26T08:51:04.022Z,101329.50
2019-03-26T08:53:33.446Z,101331.74
2019-03-26T08:56:02.908Z,101335.37
2019-03-26T08:58:32.315Z,101337.78
2019-03-26T09:01:01.760Z,101333.73
2019-03-26T09:03:32.284Z,101344.36
2019-03-26T09:06:01.734Z,101343.09
2019-03-26T09:08:31.155Z,101348.25
2019-03-26T09:11:03.032Z,101347.66
2019-03-26T09:13:32.437Z,101356.77
2019-03-26T09:16:02.713Z,101350.28
2019-03-26T09:18:32.157Z,101373.97
2019-03-26T09:21:01.595Z,101364.52
2019-03-26T09:23:31.034Z,101370.02
2019-03-26T09:26:00.438Z,101380.44
2019-03-26T09:28:31.283Z,101399.05
2019-03-26T09:31:00.940Z,101389.70
2019-03-26T09:33:30.391Z,101396.80
2019-03-26T09:35:59.805Z,101413.34
2019-03-26T09:38:38.931Z,101406.78
2019-03-26T09:41:00.350Z,101402.12
2019-03-26T09:43:29.796Z,101405.31
2019-03-26T09:45:59.270Z,101393.72
2019-03-26T09:48:28.724Z,101396.61
2019-03-26T09:50:58.139Z,101397.23
2019-03-26T09:53:27.594Z,101409.55
2019-03-26T09:55:56.998Z,101387.64
2019-03-26T09:58:26.451Z,101381.66
2019-03-26T10:00:56.331Z,101383.66
2019-03-26T10:03:25.793Z,101365.39
2019-03-26T10:05:55.287Z,101373.33
2019-03-26T10:08:25.159Z,101372.02
2019-03-26T10:10:54.611Z,101364.42
2019-03-26T10:13:24.399Z,101375.97
2019-03-26T10:15:53.811Z,101354.58
2019-03-26T10:18:24.438Z,101360.52
2019-03-26T10:20:53.855Z,101364.05
2019-03-26T10:23:23.289Z,101353.03
2019-03-26T10:25:52.716Z,101351.52
2019-03-26T10:28:22.630Z,101359.66
2019-03-26T10:30:52.271Z,101346.32
2019-03-26T10:33:21.708Z,101360.94
2019-03-26T10:35:51.125Z,101364.64
2019-03-26T10:38:20.577Z,101362.84
2019-03-26T10:40:49.975Z,101349.08
2019-03-26T10:43:19.414Z,101353.56
2019-03-26T10:45:48.823Z,101351.16
2019-03-26T10:48:18.298Z,101336.64
2019-03-26T10:50:47.730Z,101338.39
2019-03-26T10:53:18.599Z,101331.74
2019-03-26T10:55:48.009Z,101327.82
2019-03-26T10:58:17.506Z,101327.41
2019-03-26T11:00:46.919Z,101325.79
2019-03-26T11:03:16.578Z,101315.61
2019-03-26T11:05:45.997Z,101317.58
2019-03-26T11:08:15.439Z,101318.59
2019-03-26T11:10:44.849Z,101315.42
2019-03-26T11:13:16.175Z,101313.34
2019-03-26T11:15:45.590Z,101305.44
2019-03-26T11:18:15.040Z,101307.85
2019-03-26T11:20:44.475Z,101294.97
2019-03-26T11:23:13.914Z,101296.72
2019-03-26T11:25:43.355Z,101298.68
2019-03-26T11:28:12.767Z,101283.02
2019-03-26T11:30:42.229Z,101269.36
2019-03-26T11:33:11.644Z,101270.34
2019-03-26T11:35:41.138Z,101274.70
2019-03-26T11:38:10.548Z,101272.92
2019-03-26T11:40:40.008Z,101268.67
2019-03-26T11:43:12.143Z,101271.75
2019-03-26T11:45:41.584Z,101266.34
2019-03-26T11:48:11.002Z,101294.66
2019-03-26T11:50:40.484Z,101287.89
2019-03-26T11:53:10.003Z,101283.88
2019-03-26T11:55:39.656Z,101271.75
2019-03-26T11:58:09.067Z,101263.31
2019-03-26T12:00:39.353Z,101255.91
2019-03-26T12:03:08.877Z,101269.38
2019-03-26T12:05:38.329Z,101265.26
2019-03-26T12:08:07.866Z,101264.63
2019-03-26T12:10:38.792Z,101260.44
2019-03-26T12:13:08.210Z,101245.55
2019-03-26T12:15:37.651Z,101227.13
2019-03-26T12:18:07.077Z,101234.48
2019-03-26T12:20:36.494Z,101244.71
2019-03-26T12:23:05.901Z,101247.91
2019-03-26T12:25:35.447Z,101244.17
2019-03-26T12:28:05.200Z,101254.52
2019-03-26T12:30:35.978Z,101238.11
2019-03-26T12:33:05.617Z,101239.52
2019-03-26T12:35:35.343Z,101240.80
2019-03-26T12:38:08.308Z,101229.43
2019-03-26T12:40:37.762Z,101225.80
2019-03-26T12:43:07.228Z,101234.73
2019-03-26T12:45:36.565Z,101243.73
2019-03-26T12:48:05.976Z,101217.95
2019-03-26T12:50:35.416Z,101243.37
2019-03-26T12:53:04.818Z,101266.50
2019-03-26T12:55:34.272Z,101241.19
2019-03-26T12:58:03.692Z,101258.16
2019-03-26T13:00:33.570Z,101241.66
2019-03-26T13:03:03.071Z,101242.42
2019-03-26T13:05:32.619Z,101250.56
2019-03-26T13:08:02.023Z,101232.20
2019-03-26T13:10:31.884Z,101232.48
2019-03-26T13:13:01.291Z,101238.47
2019-03-26T13:15:30.819Z,101239.02
2019-03-26T13:18:00.225Z,101230.34
2019-03-26T13:20:29.668Z,101226.68
2019-03-26T13:22:59.074Z,101222.43
2019-03-26T13:25:29.072Z,101212.42
2019-03-26T13:27:58.477Z,101232.20
2019-03-26T13:30:27.911Z,101228.72
2019-03-26T13:32:57.349Z,101222.88
2019-03-26T13:35:26.762Z,101226.84
2019-03-26T13:37:56.358Z,101218.39
2019-03-26T13:40:27.559Z,101224.06
2019-03-26T13:42:57.100Z,101230.70
2019-03-26T13:45:26.514Z,101228.16
2019-03-26T13:47:55.963Z,101239.06
2019-03-26T13:50:25.362Z,101236.95
2019-03-26T13:52:54.809Z,101239.76
2019-03-26T13:55:24.267Z,101245.56
2019-03-26T13:57:53.774Z,101238.38
2019-03-26T14:00:26.432Z,101233.09
2019-03-26T14:02:55.876Z,101239.07
2019-03-26T14:05:25.953Z,101229.77
2019-03-26T14:07:55.388Z,101232.19
2019-03-26T14:10:24.823Z,101234.47
2019-03-26T14:12:54.270Z,101242.89
2019-03-26T14:15:23.695Z,101238.25
2019-03-26T14:17:53.147Z,101238.84
2019-03-26T14:20:22.571Z,101238.13
2019-03-26T14:22:52.007Z,101233.00
2019-03-26T14:25:21.418Z,101238.08
2019-03-26T14:27:50.846Z,101245.23
2019-03-26T14:30:26.169Z,101253.23
2019-03-26T14:32:55.608Z,101239.03
2019-03-26T14:35:25.013Z,101251.33
2019-03-26T14:37:54.447Z,101254.79
2019-03-26T14:40:23.852Z,101259.67
2019-03-26T14:42:53.309Z,101265.39
2019-03-26T14:45:22.721Z,101266.83
2019-03-26T14:47:52.160Z,101264.97
2019-03-26T14:50:21.577Z,101265.22
2019-03-26T14:52:51.017Z,101264.52
2019-03-26T14:55:20.428Z,101261.56
2019-03-26T14:57:49.882Z,101257.56
2019-03-26T15:00:19.291Z,101255.11
2019-03-26T15:02:48.728Z,101254.91
2019-03-26T15:05:18.140Z,101259.02
2019-03-26T15:07:47.579Z,101259.28
2019-03-26T15:10:16.988Z,101266.97
2019-03-26T15:12:46.424Z,101278.41
2019-03-26T15:15:15.832Z,101287.24
2019-03-26T15:17:45.268Z,101275.00
2019-03-26T15:20:14.670Z,101285.17
2019-03-26T15:22:44.111Z,101282.38
2019-03-26T15:25:13.533Z,101289.46
2019-03-26T15:27:42.967Z,101293.66
2019-03-26T15:30:12.371Z,101293.89
2019-03-26T15:32:41.812Z,101286.44
2019-03-26T15:35:11.226Z,101283.50
2019-03-26T15:37:40.669Z,101286.33
2019-03-26T15:40:10.078Z,101288.59
2019-03-26T15:42:39.537Z,101287.84
2019-03-26T15:45:09.043Z,101295.27
2019-03-26T15:47:38.489Z,101300.91
2019-03-26T15:50:07.933Z,101302.03
2019-03-26T15:52:37.349Z,101297.20
2019-03-26T15:55:06.791Z,101313.83
2019-03-26T15:57:36.214Z,101307.59
2019-03-26T16:00:07.809Z,101310.56
2019-03-26T16:02:37.213Z,101315.27
2019-03-26T16:05:08.096Z,101323.73
2019-03-26T16:07:37.505Z,101318.96
2019-03-26T16:10:07.504Z,101334.64
2019-03-26T16:12:41.290Z,101330.41
2019-03-26T16:15:08.045Z,101333.05
2019-03-26T16:17:37.462Z,101339.10
2019-03-26T16:20:07.079Z,101346.01
2019-03-26T16:22:36.485Z,101346.79
2019-03-26T16:25:06.187Z,101341.18
2019-03-26T16:27:35.598Z,101345.16
2019-03-26T16:30:06.747Z,101339.33
2019-03-26T16:32:36.167Z,101352.73
2019-03-26T16:35:06.162Z,101359.16
2019-03-26T16:37:35.577Z,101354.52
2019-03-26T16:40:06.289Z,101369.23
2019-03-26T16:42:35.706Z,101358.83
2019-03-26T16:45:06.329Z,101359.73
2019-03-26T16:47:36.065Z,101360.47
2019-03-26T16:50:07.457Z,101377.92
2019-03-26T16:52:36.875Z,101379.70
2019-03-26T16:55:06.684Z,101379.70
2019-03-26T16:57:36.982Z,101387.95
2019-03-26T17:00:06.554Z,101384.94
2019-03-26T17:02:36.082Z,101395.34
2019-03-26T17:05:06.293Z,101397.16
2019-03-26T17:07:36.073Z,101399.87
2019-03-26T17:10:08.556Z,101400.32
2019-03-26T17:12:37.967Z,101402.13
2019-03-26T17:15:08.081Z,101407.89
2019-03-26T17:17:37.496Z,101406.63
2019-03-26T17:20:07.000Z,101410.05
2019-03-26T17:22:36.413Z,101414.66
2019-03-26T17:25:08.613Z,101417.44
2019-03-26T17:27:38.032Z,101411.34
2019-03-26T17:30:07.476Z,101408.23
2019-03-26T17:32:36.891Z,101417.03
2019-03-26T17:35:06.804Z,101426.23
2019-03-26T17:37:36.215Z,101423.30
2019-03-26T17:40:05.658Z,101440.81
2019-03-26T17:42:35.066Z,101442.78
2019-03-26T17:45:05.456Z,101450.25
2019-03-26T17:47:34.880Z,101461.73
2019-03-26T17:50:06.356Z,101456.64
2019-03-26T17:52:36.074Z,101456.98
2019-03-26T17:55:07.186Z,101463.69
2019-03-26T17:57:36.604Z,101455.00
2019-03-26T18:00:11.492Z,101461.39
2019-03-26T18:02:40.968Z,101460.98
2019-03-26T18:05:25.091Z,101460.95
2019-03-26T18:07:54.512Z,101470.90
2019-03-26T18:10:23.957Z,101467.92
2019-03-26T18:12:53.384Z,101475.80
2019-03-26T18:15:22.838Z,101478.80
2019-03-26T18:17:52.252Z,101474.42
2019-03-26T18:20:31.948Z,101485.23
2019-03-26T18:22:52.790Z,101492.62
2019-03-26T18:25:22.231Z,101492.52
2019-03-26T18:27:51.653Z,101499.42
2019-03-26T18:30:21.113Z,101505.48
2019-03-26T18:32:50.548Z,101522.81
2019-03-26T18:35:19.959Z,101527.06
2019-03-26T18:37:49.417Z,101536.16
2019-03-26T18:40:18.830Z,101540.06
2019-03-26T18:42:48.288Z,101554.22
2019-03-26T18:45:46.305Z,101559.28
2019-03-26T18:48:19.802Z,101573.09
2019-03-26T18:50:49.232Z,101579.44
2019-03-26T18:53:18.676Z,101575.13
2019-03-26T18:55:48.088Z,101576.11
2019-03-26T18:58:17.533Z,101584.17
2019-03-26T19:00:46.957Z,101594.62
2019-03-26T19:03:16.398Z,101600.67
2019-03-26T19:05:45.821Z,101605.88
2019-03-26T19:08:15.265Z,101617.55
2019-03-26T19:10:44.685Z,101620.15
2019-03-26T19:13:19.792Z,101632.12
2019-03-26T19:15:45.245Z,101635.67
2019-03-26T19:18:14.692Z,101635.41
2019-03-26T19:20:44.116Z,101642.02
2019-03-26T19:23:13.553Z,101650.33
2019-03-26T19:25:42.970Z,101654.61
2019-03-26T19:28:12.421Z,101652.79
2019-03-26T19:30:41.842Z,101657.30
2019-03-26T19:33:11.281Z,101657.27
2019-03-26T19:35:40.729Z,101656.55
2019-03-26T19:38:10.176Z,101666.61
2019-03-26T19:40:39.594Z,101666.36
2019-03-26T19:43:11.103Z,101671.20
2019-03-26T19:45:40.149Z,101672.58
2019-03-26T19:48:09.588Z,101675.92
2019-03-26T19:50:38.998Z,101681.05
2019-03-26T19:53:08.441Z,101677.05
2019-03-26T19:55:37.860Z,101679.59
2019-03-26T19:58:07.296Z,101685.58
2019-03-26T20:00:36.706Z,101685.58
2019-03-26T20:03:06.147Z,101692.67
2019-03-26T20:05:35.810Z,101694.85
2019-03-26T20:08:05.296Z,101701.34
2019-03-26T20:10:34.866Z,101700.33
2019-03-26T20:13:04.322Z,101708.83
2019-03-26T20:15:33.728Z,101709.27
2019-03-26T20:18:03.166Z,101726.20
2019-03-26T20:20:32.579Z,101730.90
2019-03-26T20:23:02.348Z,101740.92
2019-03-26T20:25:31.856Z,101741.45
2019-03-26T20:28:01.376Z,101744.45
2019-03-26T20:30:30.776Z,101751.81
2019-03-26T20:33:00.220Z,101743.48
2019-03-26T20:35:29.665Z,101756.23
2019-03-26T20:37:59.341Z,101762.80
2019-03-26T20:40:29.343Z,101769.72
2019-03-26T20:42:58.752Z,101773.24
2019-03-26T20:45:28.187Z,101776.13
2019-03-26T20:47:57.600Z,101780.08
2019-03-26T20:50:27.043Z,101774.65
2019-03-26T20:52:56.461Z,101781.22
2019-03-26T20:55:31.102Z,101780.70
2019-03-26T20:58:00.587Z,101781.59
2019-03-26T21:00:37.452Z,101788.48
2019-03-26T21:03:06.937Z,101792.46
2019-03-26T21:05:36.384Z,101792.09
2019-03-26T21:08:06.085Z,101800.97
2019-03-26T21:10:35.540Z,101801.90
2019-03-26T21:13:04.955Z,101801.90
2019-03-26T21:15:34.906Z,101808.88
2019-03-26T21:18:04.328Z,101803.39
2019-03-26T21:20:34.292Z,101805.25
2019-03-26T21:23:03.713Z,101803.47
2019-03-26T21:25:33.169Z,101808.70
2019-03-26T21:28:03.532Z,101814.02
2019-03-26T21:30:32.998Z,101820.25
2019-03-26T21:33:02.476Z,101819.93
2019-03-26T21:35:32.256Z,101826.95
2019-03-26T21:38:01.671Z,101829.45
2019-03-26T21:40:31.644Z,101830.05
2019-03-26T21:43:01.207Z,101831.94
2019-03-26T21:45:35.893Z,101837.66
2019-03-26T21:48:05.945Z,101831.30
2019-03-26T21:50:35.397Z,101832.25
2019-03-26T21:53:04.821Z,101834.56
2019-03-26T21:55:34.273Z,101841.52
2019-03-26T21:58:03.700Z,101836.39
2019-03-26T22:00:33.150Z,101843.30
2019-03-26T22:03:02.566Z,101848.98
2019-03-26T22:05:32.474Z,101847.84
2019-03-26T22:08:01.891Z,101845.40
2019-03-26T22:10:31.355Z,101849.41
2019-03-26T22:13:00.968Z,101848.64
2019-03-26T22:15:30.408Z,101849.50
2019-03-26T22:17:59.823Z,101848.20
2019-03-26T22:20:29.524Z,101857.99
2019-03-26T22:22:58.982Z,101857.17
2019-03-26T22:25:28.466Z,101869.37
2019-03-26T22:27:57.881Z,101873.77
2019-03-26T22:30:27.324Z,101873.50
2019-03-26T22:32:56.737Z,101885.67
2019-03-26T22:35:26.185Z,101882.70
2019-03-26T22:37:55.601Z,101880.63
2019-03-26T22:40:25.050Z,101882.81
2019-03-26T22:42:54.463Z,101877.64
2019-03-26T22:45:23.920Z,101891.03
2019-03-26T22:47:53.332Z,101897.56
2019-03-26T22:50:22.776Z,101896.31
2019-03-26T22:52:52.196Z,101905.84
2019-03-26T22:55:21.640Z,101911.05
2019-03-26T22:57:51.069Z,101908.14
2019-03-26T23:00:20.744Z,101912.47
2019-03-26T23:02:50.189Z,101919.85
2019-03-26T23:05:19.715Z,101916.02
2019-03-26T23:07:49.147Z,101918.66
2019-03-26T23:10:19.037Z,101924.22
2019-03-26T23:12:48.481Z,101924.30
2019-03-26T23:15:20.701Z,101935.09
2019-03-26T23:17:50.141Z,101940.25
2019-03-26T23:20:19.552Z,101937.75
2019-03-26T23:22:49.011Z,101934.77
2019-03-26T23:25:18.429Z,101929.58
2019-03-26T23:27:47.890Z,101933.51
2019-03-26T23:30:17.305Z,101932.24
2019-03-26T23:32:46.745Z,101933.16
2019-03-26T23:35:16.160Z,101931.95
2019-03-26T23:37:45.593Z,101930.67
2019-03-26T23:40:15.014Z,101938.47
2019-03-26T23:42:44.456Z,101924.69
2019-03-26T23:45:13.875Z,101936.34
2019-03-26T23:47:43.310Z,101932.95
2019-03-26T23:50:12.723Z,101940.59
2019-03-26T23:52:42.163Z,101938.42
2019-03-26T23:55:11.576Z,101943.95
2019-03-26T23:57:41.015Z,101944.80
